sensor_id;sensor_type;location;lat;lon;timestamp;P1;durP1;ratioP1;P2;durP2;ratioP2
39896;SDS011;25567;48.276;14.242;2023-04-24T00:00:40;1.60;;;0.98;;
39896;SDS011;25567;48.276;14.242;2023-04-24T00:03:07;2.13;;;0.90;;
39896;SDS011;25567;48.276;14.242;2023-04-24T00:05:34;1.95;;;1.23;;
39896;SDS011;25567;48.276;14.242;2023-04-24T00:08:00;3.03;;;1.40;;
39896;SDS011;25567;48.276;14.242;2023-04-24T00:10:27;2.90;;;1.20;;
39896;SDS011;25567;48.276;14.242;2023-04-24T00:12:53;1.58;;;1.27;;
39896;SDS011;25567;48.276;14.242;2023-04-24T00:15:20;4.90;;;1.52;;
39896;SDS011;25567;48.276;14.242;2023-04-24T00:17:47;2.28;;;1.20;;
39896;SDS011;25567;48.276;14.242;2023-04-24T00:20:14;5.45;;;1.50;;
39896;SDS011;25567;48.276;14.242;2023-04-24T00:22:41;3.40;;;1.60;;
39896;SDS011;25567;48.276;14.242;2023-04-24T00:25:07;3.47;;;1.80;;
39896;SDS011;25567;48.276;14.242;2023-04-24T00:27:34;3.72;;;2.03;;
39896;SDS011;25567;48.276;14.242;2023-04-24T00:30:03;2.78;;;1.60;;
39896;SDS011;25567;48.276;14.242;2023-04-24T00:32:29;5.10;;;2.20;;
39896;SDS011;25567;48.276;14.242;2023-04-24T00:34:56;3.42;;;2.00;;
39896;SDS011;25567;48.276;14.242;2023-04-24T00:37:22;4.57;;;1.90;;
39896;SDS011;25567;48.276;14.242;2023-04-24T00:39:49;4.13;;;1.98;;
39896;SDS011;25567;48.276;14.242;2023-04-24T00:42:15;5.65;;;2.20;;
39896;SDS011;25567;48.276;14.242;2023-04-24T00:44:42;5.05;;;2.42;;
39896;SDS011;25567;48.276;14.242;2023-04-24T00:47:09;6.97;;;2.35;;
39896;SDS011;25567;48.276;14.242;2023-04-24T00:49:36;6.63;;;2.70;;
39896;SDS011;25567;48.276;14.242;2023-04-24T00:52:03;7.15;;;2.20;;
39896;SDS011;25567;48.276;14.242;2023-04-24T00:54:34;4.90;;;2.30;;
39896;SDS011;25567;48.276;14.242;2023-04-24T00:57:02;6.03;;;2.00;;
39896;SDS011;25567;48.276;14.242;2023-04-24T00:59:28;3.28;;;1.92;;
39896;SDS011;25567;48.276;14.242;2023-04-24T01:01:55;5.78;;;1.88;;
39896;SDS011;25567;48.276;14.242;2023-04-24T01:04:22;4.45;;;2.20;;
39896;SDS011;25567;48.276;14.242;2023-04-24T01:06:50;3.60;;;2.08;;
39896;SDS011;25567;48.276;14.242;2023-04-24T01:09:18;3.67;;;2.38;;
39896;SDS011;25567;48.276;14.242;2023-04-24T01:11:46;4.03;;;2.08;;
39896;SDS011;25567;48.276;14.242;2023-04-24T01:14:13;3.35;;;1.90;;
39896;SDS011;25567;48.276;14.242;2023-04-24T01:16:39;3.60;;;2.13;;
39896;SDS011;25567;48.276;14.242;2023-04-24T01:19:07;5.93;;;2.17;;
39896;SDS011;25567;48.276;14.242;2023-04-24T01:21:34;6.25;;;2.20;;
39896;SDS011;25567;48.276;14.242;2023-04-24T01:24:05;4.25;;;1.83;;
39896;SDS011;25567;48.276;14.242;2023-04-24T01:26:32;5.05;;;2.13;;
39896;SDS011;25567;48.276;14.242;2023-04-24T01:28:59;4.20;;;2.47;;
39896;SDS011;25567;48.276;14.242;2023-04-24T01:31:25;2.83;;;1.88;;
39896;SDS011;25567;48.276;14.242;2023-04-24T01:33:52;3.97;;;1.75;;
39896;SDS011;25567;48.276;14.242;2023-04-24T01:36:18;3.80;;;1.98;;
39896;SDS011;25567;48.276;14.242;2023-04-24T01:38:45;6.00;;;1.60;;
39896;SDS011;25567;48.276;14.242;2023-04-24T01:41:11;4.85;;;1.65;;
39896;SDS011;25567;48.276;14.242;2023-04-24T01:43:38;3.13;;;1.90;;
39896;SDS011;25567;48.276;14.242;2023-04-24T01:46:05;2.85;;;1.60;;
39896;SDS011;25567;48.276;14.242;2023-04-24T01:48:35;5.10;;;1.65;;
39896;SDS011;25567;48.276;14.242;2023-04-24T01:51:02;3.30;;;1.63;;
39896;SDS011;25567;48.276;14.242;2023-04-24T01:53:28;3.17;;;1.60;;
39896;SDS011;25567;48.276;14.242;2023-04-24T01:55:55;3.10;;;1.73;;
39896;SDS011;25567;48.276;14.242;2023-04-24T01:58:22;2.92;;;1.80;;
39896;SDS011;25567;48.276;14.242;2023-04-24T02:00:49;2.33;;;1.42;;
39896;SDS011;25567;48.276;14.242;2023-04-24T02:03:15;2.78;;;1.50;;
39896;SDS011;25567;48.276;14.242;2023-04-24T02:05:45;3.63;;;1.98;;
39896;SDS011;25567;48.276;14.242;2023-04-24T02:08:12;2.00;;;1.42;;
39896;SDS011;25567;48.276;14.242;2023-04-24T02:10:38;2.08;;;1.45;;
39896;SDS011;25567;48.276;14.242;2023-04-24T02:13:05;3.53;;;1.83;;
39896;SDS011;25567;48.276;14.242;2023-04-24T02:15:31;2.35;;;1.50;;
39896;SDS011;25567;48.276;14.242;2023-04-24T02:17:58;3.13;;;1.80;;
39896;SDS011;25567;48.276;14.242;2023-04-24T02:20:24;2.55;;;1.50;;
39896;SDS011;25567;48.276;14.242;2023-04-24T02:22:53;2.72;;;1.50;;
39896;SDS011;25567;48.276;14.242;2023-04-24T02:25:19;3.15;;;1.60;;
39896;SDS011;25567;48.276;14.242;2023-04-24T02:27:46;2.00;;;1.45;;
39896;SDS011;25567;48.276;14.242;2023-04-24T02:30:12;6.20;;;1.70;;
39896;SDS011;25567;48.276;14.242;2023-04-24T02:32:39;2.92;;;1.58;;
39896;SDS011;25567;48.276;14.242;2023-04-24T02:35:05;7.97;;;1.90;;
39896;SDS011;25567;48.276;14.242;2023-04-24T02:37:32;4.47;;;1.80;;
39896;SDS011;25567;48.276;14.242;2023-04-24T02:39:59;3.17;;;1.70;;
39896;SDS011;25567;48.276;14.242;2023-04-24T02:42:25;3.60;;;1.55;;
39896;SDS011;25567;48.276;14.242;2023-04-24T02:44:52;4.78;;;1.90;;
39896;SDS011;25567;48.276;14.242;2023-04-24T02:47:19;4.05;;;1.70;;
39896;SDS011;25567;48.276;14.242;2023-04-24T02:49:45;4.10;;;1.95;;
39896;SDS011;25567;48.276;14.242;2023-04-24T02:52:12;5.10;;;1.70;;
39896;SDS011;25567;48.276;14.242;2023-04-24T02:54:39;5.13;;;1.85;;
39896;SDS011;25567;48.276;14.242;2023-04-24T02:57:06;3.67;;;1.88;;
39896;SDS011;25567;48.276;14.242;2023-04-24T02:59:32;4.60;;;1.98;;
39896;SDS011;25567;48.276;14.242;2023-04-24T03:01:59;4.82;;;1.95;;
39896;SDS011;25567;48.276;14.242;2023-04-24T03:04:26;3.90;;;1.95;;
39896;SDS011;25567;48.276;14.242;2023-04-24T03:06:53;6.28;;;1.80;;
39896;SDS011;25567;48.276;14.242;2023-04-24T03:09:21;3.92;;;2.10;;
39896;SDS011;25567;48.276;14.242;2023-04-24T03:11:47;3.15;;;1.92;;
39896;SDS011;25567;48.276;14.242;2023-04-24T03:14:16;3.63;;;2.10;;
39896;SDS011;25567;48.276;14.242;2023-04-24T03:16:42;3.72;;;1.83;;
39896;SDS011;25567;48.276;14.242;2023-04-24T03:19:09;2.83;;;1.92;;
39896;SDS011;25567;48.276;14.242;2023-04-24T03:21:35;4.53;;;2.10;;
39896;SDS011;25567;48.276;14.242;2023-04-24T03:24:07;3.65;;;2.15;;
39896;SDS011;25567;48.276;14.242;2023-04-24T03:26:33;4.07;;;2.10;;
39896;SDS011;25567;48.276;14.242;2023-04-24T03:29:00;4.85;;;2.22;;
39896;SDS011;25567;48.276;14.242;2023-04-24T03:31:26;5.10;;;2.78;;
39896;SDS011;25567;48.276;14.242;2023-04-24T03:33:53;3.80;;;2.53;;
39896;SDS011;25567;48.276;14.242;2023-04-24T03:36:19;4.70;;;2.53;;
39896;SDS011;25567;48.276;14.242;2023-04-24T03:38:46;6.85;;;3.10;;
39896;SDS011;25567;48.276;14.242;2023-04-24T03:41:12;11.07;;;3.08;;
39896;SDS011;25567;48.276;14.242;2023-04-24T03:43:39;5.65;;;3.00;;
39896;SDS011;25567;48.276;14.242;2023-04-24T03:46:06;5.32;;;2.70;;
39896;SDS011;25567;48.276;14.242;2023-04-24T03:48:33;5.65;;;3.17;;
39896;SDS011;25567;48.276;14.242;2023-04-24T03:50:59;5.50;;;3.30;;
39896;SDS011;25567;48.276;14.242;2023-04-24T03:53:27;7.07;;;3.63;;
39896;SDS011;25567;48.276;14.242;2023-04-24T03:55:54;7.00;;;3.35;;
39896;SDS011;25567;48.276;14.242;2023-04-24T03:58:21;6.47;;;3.90;;
39896;SDS011;25567;48.276;14.242;2023-04-24T04:00:47;7.88;;;3.65;;
39896;SDS011;25567;48.276;14.242;2023-04-24T04:03:14;6.30;;;3.90;;
39896;SDS011;25567;48.276;14.242;2023-04-24T04:05:41;7.15;;;3.67;;
39896;SDS011;25567;48.276;14.242;2023-04-24T04:08:07;5.20;;;3.40;;
39896;SDS011;25567;48.276;14.242;2023-04-24T04:10:34;5.53;;;3.58;;
39896;SDS011;25567;48.276;14.242;2023-04-24T04:13:00;5.65;;;3.63;;
39896;SDS011;25567;48.276;14.242;2023-04-24T04:15:27;6.95;;;3.88;;
39896;SDS011;25567;48.276;14.242;2023-04-24T04:17:54;7.65;;;4.55;;
39896;SDS011;25567;48.276;14.242;2023-04-24T04:20:20;6.88;;;3.95;;
39896;SDS011;25567;48.276;14.242;2023-04-24T04:22:46;6.82;;;4.00;;
39896;SDS011;25567;48.276;14.242;2023-04-24T04:25:13;8.40;;;4.10;;
39896;SDS011;25567;48.276;14.242;2023-04-24T04:27:39;4.82;;;3.28;;
39896;SDS011;25567;48.276;14.242;2023-04-24T04:30:08;5.10;;;3.55;;
39896;SDS011;25567;48.276;14.242;2023-04-24T04:32:36;7.15;;;3.70;;
39896;SDS011;25567;48.276;14.242;2023-04-24T04:35:03;7.80;;;3.42;;
39896;SDS011;25567;48.276;14.242;2023-04-24T04:37:30;8.85;;;3.63;;
39896;SDS011;25567;48.276;14.242;2023-04-24T04:39:57;4.30;;;3.03;;
39896;SDS011;25567;48.276;14.242;2023-04-24T04:42:24;4.88;;;3.00;;
39896;SDS011;25567;48.276;14.242;2023-04-24T04:44:51;6.35;;;3.45;;
39896;SDS011;25567;48.276;14.242;2023-04-24T04:47:17;5.18;;;2.50;;
39896;SDS011;25567;48.276;14.242;2023-04-24T04:49:44;6.38;;;2.95;;
39896;SDS011;25567;48.276;14.242;2023-04-24T04:52:11;7.72;;;2.80;;
39896;SDS011;25567;48.276;14.242;2023-04-24T04:54:37;2.95;;;2.17;;
39896;SDS011;25567;48.276;14.242;2023-04-24T04:57:04;3.05;;;1.98;;
39896;SDS011;25567;48.276;14.242;2023-04-24T04:59:31;9.52;;;2.42;;
39896;SDS011;25567;48.276;14.242;2023-04-24T05:01:57;3.58;;;1.77;;
39896;SDS011;25567;48.276;14.242;2023-04-24T05:04:25;2.45;;;1.67;;
39896;SDS011;25567;48.276;14.242;2023-04-24T05:06:53;3.67;;;1.80;;
39896;SDS011;25567;48.276;14.242;2023-04-24T05:09:19;1.83;;;1.42;;
39896;SDS011;25567;48.276;14.242;2023-04-24T05:11:45;4.90;;;1.55;;
39896;SDS011;25567;48.276;14.242;2023-04-24T05:14:12;6.40;;;1.90;;
39896;SDS011;25567;48.276;14.242;2023-04-24T05:16:41;2.90;;;1.65;;
39896;SDS011;25567;48.276;14.242;2023-04-24T05:19:07;4.38;;;2.22;;
39896;SDS011;25567;48.276;14.242;2023-04-24T05:21:34;3.05;;;1.52;;
39896;SDS011;25567;48.276;14.242;2023-04-24T05:24:01;3.85;;;1.80;;
39896;SDS011;25567;48.276;14.242;2023-04-24T05:26:27;5.88;;;1.50;;
39896;SDS011;25567;48.276;14.242;2023-04-24T05:28:54;2.15;;;1.20;;
39896;SDS011;25567;48.276;14.242;2023-04-24T05:31:20;2.60;;;1.63;;
39896;SDS011;25567;48.276;14.242;2023-04-24T05:33:47;2.58;;;1.40;;
39896;SDS011;25567;48.276;14.242;2023-04-24T05:36:13;2.70;;;1.60;;
39896;SDS011;25567;48.276;14.242;2023-04-24T05:38:40;2.30;;;1.35;;
39896;SDS011;25567;48.276;14.242;2023-04-24T05:41:07;2.75;;;1.50;;
39896;SDS011;25567;48.276;14.242;2023-04-24T05:43:33;4.35;;;1.13;;
39896;SDS011;25567;48.276;14.242;2023-04-24T05:46:00;4.22;;;0.90;;
39896;SDS011;25567;48.276;14.242;2023-04-24T05:48:27;1.15;;;0.90;;
39896;SDS011;25567;48.276;14.242;2023-04-24T05:50:53;2.45;;;0.90;;
39896;SDS011;25567;48.276;14.242;2023-04-24T05:53:20;1.13;;;0.65;;
39896;SDS011;25567;48.276;14.242;2023-04-24T05:55:47;3.28;;;1.60;;
39896;SDS011;25567;48.276;14.242;2023-04-24T05:58:13;1.83;;;0.90;;
39896;SDS011;25567;48.276;14.242;2023-04-24T06:00:40;2.50;;;0.77;;
39896;SDS011;25567;48.276;14.242;2023-04-24T06:03:08;2.17;;;1.13;;
39896;SDS011;25567;48.276;14.242;2023-04-24T06:05:36;3.20;;;0.88;;
39896;SDS011;25567;48.276;14.242;2023-04-24T06:08:02;1.77;;;0.80;;
39896;SDS011;25567;48.276;14.242;2023-04-24T06:10:29;4.45;;;0.80;;
39896;SDS011;25567;48.276;14.242;2023-04-24T06:12:55;2.03;;;0.73;;
39896;SDS011;25567;48.276;14.242;2023-04-24T06:15:27;4.75;;;1.50;;
39896;SDS011;25567;48.276;14.242;2023-04-24T06:17:54;3.92;;;0.90;;
39896;SDS011;25567;48.276;14.242;2023-04-24T06:20:21;3.47;;;1.20;;
39896;SDS011;25567;48.276;14.242;2023-04-24T06:22:47;2.78;;;1.10;;
39896;SDS011;25567;48.276;14.242;2023-04-24T06:25:14;3.38;;;1.10;;
39896;SDS011;25567;48.276;14.242;2023-04-24T06:27:40;2.45;;;1.23;;
39896;SDS011;25567;48.276;14.242;2023-04-24T06:30:07;2.10;;;0.90;;
39896;SDS011;25567;48.276;14.242;2023-04-24T06:32:33;1.25;;;0.80;;
39896;SDS011;25567;48.276;14.242;2023-04-24T06:35:00;1.55;;;0.90;;
39896;SDS011;25567;48.276;14.242;2023-04-24T06:37:27;2.33;;;1.15;;
39896;SDS011;25567;48.276;14.242;2023-04-24T06:39:53;1.75;;;0.63;;
39896;SDS011;25567;48.276;14.242;2023-04-24T06:42:20;1.60;;;0.60;;
39896;SDS011;25567;48.276;14.242;2023-04-24T06:44:50;2.72;;;0.60;;
39896;SDS011;25567;48.276;14.242;2023-04-24T06:47:17;1.75;;;0.70;;
39896;SDS011;25567;48.276;14.242;2023-04-24T06:49:44;1.33;;;0.60;;
39896;SDS011;25567;48.276;14.242;2023-04-24T06:52:11;1.42;;;0.73;;
39896;SDS011;25567;48.276;14.242;2023-04-24T06:54:38;4.38;;;1.30;;
39896;SDS011;25567;48.276;14.242;2023-04-24T06:57:04;2.83;;;0.90;;
39896;SDS011;25567;48.276;14.242;2023-04-24T06:59:31;2.55;;;0.77;;
39896;SDS011;25567;48.276;14.242;2023-04-24T07:01:57;1.77;;;0.82;;
39896;SDS011;25567;48.276;14.242;2023-04-24T07:04:24;1.33;;;0.70;;
39896;SDS011;25567;48.276;14.242;2023-04-24T07:06:52;0.85;;;0.68;;
39896;SDS011;25567;48.276;14.242;2023-04-24T07:09:20;1.70;;;0.70;;
39896;SDS011;25567;48.276;14.242;2023-04-24T07:11:48;1.27;;;0.85;;
39896;SDS011;25567;48.276;14.242;2023-04-24T07:14:14;2.50;;;0.70;;
39896;SDS011;25567;48.276;14.242;2023-04-24T07:16:41;2.13;;;0.70;;
39896;SDS011;25567;48.276;14.242;2023-04-24T07:19:08;1.02;;;0.80;;
39896;SDS011;25567;48.276;14.242;2023-04-24T07:21:35;1.65;;;0.75;;
39896;SDS011;25567;48.276;14.242;2023-04-24T07:24:01;2.13;;;0.90;;
39896;SDS011;25567;48.276;14.242;2023-04-24T07:26:30;2.33;;;0.85;;
39896;SDS011;25567;48.276;14.242;2023-04-24T07:28:57;2.83;;;0.90;;
39896;SDS011;25567;48.276;14.242;2023-04-24T07:31:24;1.23;;;0.75;;
39896;SDS011;25567;48.276;14.242;2023-04-24T07:33:50;2.15;;;0.80;;
39896;SDS011;25567;48.276;14.242;2023-04-24T07:36:17;1.80;;;0.90;;
39896;SDS011;25567;48.276;14.242;2023-04-24T07:38:45;2.97;;;0.80;;
39896;SDS011;25567;48.276;14.242;2023-04-24T07:41:14;3.78;;;1.10;;
39896;SDS011;25567;48.276;14.242;2023-04-24T07:43:41;3.90;;;0.93;;
39896;SDS011;25567;48.276;14.242;2023-04-24T07:46:08;2.58;;;1.20;;
39896;SDS011;25567;48.276;14.242;2023-04-24T07:48:35;4.53;;;1.02;;
39896;SDS011;25567;48.276;14.242;2023-04-24T07:51:01;2.03;;;1.02;;
39896;SDS011;25567;48.276;14.242;2023-04-24T07:53:28;3.25;;;1.02;;
39896;SDS011;25567;48.276;14.242;2023-04-24T07:55:55;2.90;;;1.15;;
39896;SDS011;25567;48.276;14.242;2023-04-24T07:58:22;5.18;;;1.85;;
39896;SDS011;25567;48.276;14.242;2023-04-24T08:00:48;1.50;;;1.10;;
39896;SDS011;25567;48.276;14.242;2023-04-24T08:03:15;8.23;;;1.30;;
39896;SDS011;25567;48.276;14.242;2023-04-24T08:05:45;2.28;;;1.30;;
39896;SDS011;25567;48.276;14.242;2023-04-24T08:08:11;1.83;;;1.10;;
39896;SDS011;25567;48.276;14.242;2023-04-24T08:10:38;1.98;;;0.85;;
39896;SDS011;25567;48.276;14.242;2023-04-24T08:13:05;15.18;;;1.20;;
39896;SDS011;25567;48.276;14.242;2023-04-24T08:15:31;1.00;;;0.60;;
39896;SDS011;25567;48.276;14.242;2023-04-24T08:17:58;2.42;;;1.10;;
39896;SDS011;25567;48.276;14.242;2023-04-24T08:20:24;2.33;;;1.02;;
39896;SDS011;25567;48.276;14.242;2023-04-24T08:22:51;4.95;;;0.93;;
39896;SDS011;25567;48.276;14.242;2023-04-24T08:25:17;1.85;;;0.90;;
39896;SDS011;25567;48.276;14.242;2023-04-24T08:27:47;2.35;;;1.13;;
39896;SDS011;25567;48.276;14.242;2023-04-24T08:30:13;2.80;;;1.05;;
39896;SDS011;25567;48.276;14.242;2023-04-24T08:32:40;1.88;;;1.10;;
39896;SDS011;25567;48.276;14.242;2023-04-24T08:35:07;1.83;;;0.95;;
39896;SDS011;25567;48.276;14.242;2023-04-24T08:37:35;4.68;;;1.00;;
39896;SDS011;25567;48.276;14.242;2023-04-24T08:40:03;4.80;;;1.20;;
39896;SDS011;25567;48.276;14.242;2023-04-24T08:42:32;1.98;;;1.23;;
39896;SDS011;25567;48.276;14.242;2023-04-24T08:45:00;4.70;;;1.05;;
39896;SDS011;25567;48.276;14.242;2023-04-24T08:47:27;1.98;;;0.88;;
39896;SDS011;25567;48.276;14.242;2023-04-24T08:49:53;2.10;;;1.25;;
39896;SDS011;25567;48.276;14.242;2023-04-24T08:52:20;4.70;;;1.05;;
39896;SDS011;25567;48.276;14.242;2023-04-24T08:54:48;1.67;;;1.00;;
39896;SDS011;25567;48.276;14.242;2023-04-24T08:57:14;3.55;;;1.27;;
39896;SDS011;25567;48.276;14.242;2023-04-24T08:59:41;3.38;;;1.00;;
39896;SDS011;25567;48.276;14.242;2023-04-24T09:02:10;1.42;;;1.00;;
39896;SDS011;25567;48.276;14.242;2023-04-24T09:04:37;3.67;;;1.10;;
39896;SDS011;25567;48.276;14.242;2023-04-24T09:07:04;2.10;;;1.10;;
39896;SDS011;25567;48.276;14.242;2023-04-24T09:09:32;2.47;;;0.70;;
39896;SDS011;25567;48.276;14.242;2023-04-24T09:11:59;1.92;;;0.93;;
39896;SDS011;25567;48.276;14.242;2023-04-24T09:14:26;3.58;;;0.90;;
39896;SDS011;25567;48.276;14.242;2023-04-24T09:16:54;1.95;;;1.00;;
39896;SDS011;25567;48.276;14.242;2023-04-24T09:19:20;1.50;;;0.80;;
39896;SDS011;25567;48.276;14.242;2023-04-24T09:21:48;3.88;;;0.90;;
39896;SDS011;25567;48.276;14.242;2023-04-24T09:24:17;3.20;;;1.02;;
39896;SDS011;25567;48.276;14.242;2023-04-24T09:26:44;1.33;;;0.90;;
39896;SDS011;25567;48.276;14.242;2023-04-24T09:29:17;4.45;;;0.88;;
39896;SDS011;25567;48.276;14.242;2023-04-24T09:31:44;2.75;;;0.70;;
39896;SDS011;25567;48.276;14.242;2023-04-24T09:34:11;3.55;;;0.80;;
39896;SDS011;25567;48.276;14.242;2023-04-24T09:36:39;3.38;;;1.23;;
39896;SDS011;25567;48.276;14.242;2023-04-24T09:39:11;3.53;;;1.00;;
39896;SDS011;25567;48.276;14.242;2023-04-24T09:41:45;2.38;;;0.95;;
39896;SDS011;25567;48.276;14.242;2023-04-24T09:46:38;1.70;;;0.93;;
39896;SDS011;25567;48.276;14.242;2023-04-24T09:49:09;2.45;;;0.82;;
39896;SDS011;25567;48.276;14.242;2023-04-24T09:51:37;4.18;;;0.90;;
39896;SDS011;25567;48.276;14.242;2023-04-24T09:54:04;4.22;;;1.10;;
39896;SDS011;25567;48.276;14.242;2023-04-24T09:56:33;3.95;;;0.98;;
39896;SDS011;25567;48.276;14.242;2023-04-24T09:59:06;1.63;;;0.63;;
39896;SDS011;25567;48.276;14.242;2023-04-24T10:01:34;8.65;;;1.02;;
39896;SDS011;25567;48.276;14.242;2023-04-24T10:04:01;2.03;;;0.93;;
39896;SDS011;25567;48.276;14.242;2023-04-24T10:06:33;1.73;;;0.90;;
39896;SDS011;25567;48.276;14.242;2023-04-24T10:09:00;3.50;;;1.05;;
39896;SDS011;25567;48.276;14.242;2023-04-24T10:11:27;4.05;;;0.85;;
39896;SDS011;25567;48.276;14.242;2023-04-24T10:13:54;1.65;;;0.70;;
39896;SDS011;25567;48.276;14.242;2023-04-24T10:16:22;3.63;;;0.95;;
39896;SDS011;25567;48.276;14.242;2023-04-24T10:18:49;7.90;;;1.42;;
39896;SDS011;25567;48.276;14.242;2023-04-24T10:21:17;6.15;;;1.50;;
39896;SDS011;25567;48.276;14.242;2023-04-24T10:23:44;3.25;;;1.77;;
39896;SDS011;25567;48.276;14.242;2023-04-24T10:26:12;5.72;;;1.60;;
39896;SDS011;25567;48.276;14.242;2023-04-24T10:28:44;3.45;;;1.17;;
39896;SDS011;25567;48.276;14.242;2023-04-24T10:31:11;2.42;;;1.17;;
39896;SDS011;25567;48.276;14.242;2023-04-24T10:33:39;5.80;;;1.33;;
39896;SDS011;25567;48.276;14.242;2023-04-24T10:36:08;4.05;;;1.40;;
39896;SDS011;25567;48.276;14.242;2023-04-24T10:38:35;2.67;;;1.20;;
39896;SDS011;25567;48.276;14.242;2023-04-24T10:41:09;3.42;;;1.48;;
39896;SDS011;25567;48.276;14.242;2023-04-24T10:43:36;3.63;;;1.02;;
39896;SDS011;25567;48.276;14.242;2023-04-24T10:46:03;2.22;;;1.30;;
39896;SDS011;25567;48.276;14.242;2023-04-24T10:48:30;2.20;;;1.30;;
39896;SDS011;25567;48.276;14.242;2023-04-24T10:50:56;5.45;;;1.40;;
39896;SDS011;25567;48.276;14.242;2023-04-24T10:53:24;5.07;;;1.52;;
39896;SDS011;25567;48.276;14.242;2023-04-24T10:56:05;5.55;;;1.42;;
39896;SDS011;25567;48.276;14.242;2023-04-24T10:58:40;5.03;;;1.33;;
39896;SDS011;25567;48.276;14.242;2023-04-24T11:01:06;4.50;;;1.40;;
39896;SDS011;25567;48.276;14.242;2023-04-24T11:03:34;4.80;;;1.60;;
39896;SDS011;25567;48.276;14.242;2023-04-24T11:06:05;5.53;;;1.27;;
39896;SDS011;25567;48.276;14.242;2023-04-24T11:16:20;3.03;;;1.30;;
39896;SDS011;25567;48.276;14.242;2023-04-24T11:18:51;5.38;;;1.42;;
39896;SDS011;25567;48.276;14.242;2023-04-24T11:21:21;5.60;;;1.48;;
39896;SDS011;25567;48.276;14.242;2023-04-24T11:23:48;2.25;;;1.10;;
39896;SDS011;25567;48.276;14.242;2023-04-24T11:26:19;1.75;;;1.33;;
39896;SDS011;25567;48.276;14.242;2023-04-24T11:28:48;2.88;;;1.30;;
39896;SDS011;25567;48.276;14.242;2023-04-24T11:34:12;2.13;;;1.00;;
39896;SDS011;25567;48.276;14.242;2023-04-24T11:36:44;4.75;;;1.00;;
39896;SDS011;25567;48.276;14.242;2023-04-24T11:39:11;1.00;;;0.80;;
39896;SDS011;25567;48.276;14.242;2023-04-24T11:41:38;3.42;;;1.13;;
39896;SDS011;25567;48.276;14.242;2023-04-24T11:44:07;3.95;;;1.02;;
39896;SDS011;25567;48.276;14.242;2023-04-24T11:46:34;3.55;;;1.13;;
39896;SDS011;25567;48.276;14.242;2023-04-24T11:49:01;1.42;;;0.90;;
39896;SDS011;25567;48.276;14.242;2023-04-24T11:51:27;1.67;;;1.00;;
39896;SDS011;25567;48.276;14.242;2023-04-24T11:54:07;3.08;;;1.45;;
39896;SDS011;25567;48.276;14.242;2023-04-24T11:56:33;1.20;;;0.93;;
39896;SDS011;25567;48.276;14.242;2023-04-24T11:59:00;4.55;;;1.30;;
39896;SDS011;25567;48.276;14.242;2023-04-24T12:01:30;10.10;;;1.80;;
39896;SDS011;25567;48.276;14.242;2023-04-24T12:04:08;1.50;;;0.90;;
39896;SDS011;25567;48.276;14.242;2023-04-24T12:06:35;6.55;;;0.90;;
39896;SDS011;25567;48.276;14.242;2023-04-24T12:09:02;0.90;;;0.60;;
39896;SDS011;25567;48.276;14.242;2023-04-24T12:11:52;3.70;;;0.60;;
39896;SDS011;25567;48.276;14.242;2023-04-24T12:16:47;2.08;;;0.65;;
39896;SDS011;25567;48.276;14.242;2023-04-24T12:19:23;2.03;;;0.65;;
39896;SDS011;25567;48.276;14.242;2023-04-24T12:22:02;1.13;;;0.30;;
39896;SDS011;25567;48.276;14.242;2023-04-24T12:24:30;4.15;;;0.40;;
39896;SDS011;25567;48.276;14.242;2023-04-24T12:26:57;0.75;;;0.35;;
39896;SDS011;25567;48.276;14.242;2023-04-24T12:29:24;1.00;;;0.35;;
39896;SDS011;25567;48.276;14.242;2023-04-24T12:31:51;0.70;;;0.40;;
39896;SDS011;25567;48.276;14.242;2023-04-24T12:34:18;2.15;;;0.40;;
39896;SDS011;25567;48.276;14.242;2023-04-24T12:36:46;2.10;;;0.28;;
39896;SDS011;25567;48.276;14.242;2023-04-24T12:39:17;2.00;;;0.50;;
39896;SDS011;25567;48.276;14.242;2023-04-24T12:41:54;1.42;;;0.90;;
39896;SDS011;25567;48.276;14.242;2023-04-24T12:44:56;2.63;;;0.52;;
39896;SDS011;25567;48.276;14.242;2023-04-24T12:47:14;0.90;;;0.40;;
39896;SDS011;25567;48.276;14.242;2023-04-24T12:49:41;2.40;;;0.30;;
39896;SDS011;25567;48.276;14.242;2023-04-24T12:52:07;3.47;;;0.50;;
39896;SDS011;25567;48.276;14.242;2023-04-24T12:54:34;1.90;;;0.35;;
39896;SDS011;25567;48.276;14.242;2023-04-24T12:57:00;0.60;;;0.50;;
39896;SDS011;25567;48.276;14.242;2023-04-24T12:59:27;2.63;;;0.50;;
39896;SDS011;25567;48.276;14.242;2023-04-24T13:01:56;1.42;;;0.60;;
39896;SDS011;25567;48.276;14.242;2023-04-24T13:04:23;1.92;;;0.60;;
39896;SDS011;25567;48.276;14.242;2023-04-24T13:06:51;1.48;;;0.50;;
39896;SDS011;25567;48.276;14.242;2023-04-24T13:09:17;3.53;;;0.57;;
39896;SDS011;25567;48.276;14.242;2023-04-24T13:11:44;1.73;;;0.68;;
39896;SDS011;25567;48.276;14.242;2023-04-24T13:14:10;1.27;;;0.77;;
39896;SDS011;25567;48.276;14.242;2023-04-24T13:16:37;1.95;;;0.68;;
39896;SDS011;25567;48.276;14.242;2023-04-24T13:19:04;1.60;;;0.73;;
39896;SDS011;25567;48.276;14.242;2023-04-24T13:21:30;1.60;;;0.73;;
39896;SDS011;25567;48.276;14.242;2023-04-24T13:23:57;2.60;;;1.00;;
39896;SDS011;25567;48.276;14.242;2023-04-24T13:26:23;2.53;;;1.08;;
39896;SDS011;25567;48.276;14.242;2023-04-24T13:28:50;1.70;;;0.85;;
39896;SDS011;25567;48.276;14.242;2023-04-24T13:31:16;1.67;;;0.90;;
39896;SDS011;25567;48.276;14.242;2023-04-24T13:33:43;2.20;;;0.93;;
39896;SDS011;25567;48.276;14.242;2023-04-24T13:36:10;2.78;;;0.93;;
39896;SDS011;25567;48.276;14.242;2023-04-24T13:38:36;1.23;;;1.00;;
39896;SDS011;25567;48.276;14.242;2023-04-24T13:41:03;1.58;;;0.88;;
39896;SDS011;25567;48.276;14.242;2023-04-24T13:43:29;1.35;;;0.90;;
39896;SDS011;25567;48.276;14.242;2023-04-24T13:45:56;2.63;;;1.10;;
39896;SDS011;25567;48.276;14.242;2023-04-24T13:48:22;2.28;;;1.27;;
39896;SDS011;25567;48.276;14.242;2023-04-24T13:50:49;1.48;;;0.90;;
39896;SDS011;25567;48.276;14.242;2023-04-24T13:53:15;2.75;;;1.40;;
39896;SDS011;25567;48.276;14.242;2023-04-24T13:55:42;3.60;;;1.40;;
39896;SDS011;25567;48.276;14.242;2023-04-24T13:58:08;1.17;;;0.93;;
39896;SDS011;25567;48.276;14.242;2023-04-24T14:00:35;6.72;;;1.83;;
39896;SDS011;25567;48.276;14.242;2023-04-24T14:03:01;2.65;;;1.38;;
39896;SDS011;25567;48.276;14.242;2023-04-24T14:05:29;1.75;;;1.10;;
39896;SDS011;25567;48.276;14.242;2023-04-24T14:07:59;2.65;;;1.30;;
39896;SDS011;25567;48.276;14.242;2023-04-24T14:10:26;2.60;;;1.25;;
39896;SDS011;25567;48.276;14.242;2023-04-24T14:12:53;2.75;;;1.70;;
39896;SDS011;25567;48.276;14.242;2023-04-24T14:15:19;3.78;;;1.48;;
39896;SDS011;25567;48.276;14.242;2023-04-24T14:17:47;3.85;;;1.42;;
39896;SDS011;25567;48.276;14.242;2023-04-24T14:20:14;2.88;;;1.30;;
39896;SDS011;25567;48.276;14.242;2023-04-24T14:22:41;2.40;;;1.50;;
39896;SDS011;25567;48.276;14.242;2023-04-24T14:25:08;3.67;;;1.35;;
39896;SDS011;25567;48.276;14.242;2023-04-24T14:27:35;2.85;;;1.40;;
39896;SDS011;25567;48.276;14.242;2023-04-24T14:30:02;4.45;;;1.80;;
39896;SDS011;25567;48.276;14.242;2023-04-24T14:32:29;1.92;;;1.38;;
39896;SDS011;25567;48.276;14.242;2023-04-24T14:34:56;8.73;;;2.90;;
39896;SDS011;25567;48.276;14.242;2023-04-24T14:37:23;7.18;;;2.67;;
39896;SDS011;25567;48.276;14.242;2023-04-24T14:39:49;4.53;;;2.65;;
39896;SDS011;25567;48.276;14.242;2023-04-24T14:42:36;2.00;;;1.40;;
39896;SDS011;25567;48.276;14.242;2023-04-24T14:45:02;2.88;;;1.55;;
39896;SDS011;25567;48.276;14.242;2023-04-24T14:47:29;2.90;;;1.50;;
39896;SDS011;25567;48.276;14.242;2023-04-24T14:49:55;4.47;;;1.83;;